Latest Weather Observations for Bendigo

IDV60801

Issued at 10:31 pm EST Sunday 19 April 2015 (issued every 30 minutes, with the page automatically refreshed every 10 minutes)

About weather observations | Map of weather stations | Latest weather observations for VIC | Other Formats
Station Details ID: 081123 Name: BENDIGO AIRPORT Lat: -36.74 Lon: 144.33 Height: 208.0 m
Data from the previous 72 hours. | See also: Recent months at Bendigo
Date/Time
EST
Temp
°C
App
Temp
°C
Dew
Point
Rel
Hum
%
Delta-T
°C
Wind Press
QNH
hPa
Press
MSL
hPa
Rain
since 9 am
mm
Dir
 
Spd
km/h
Gust
km/h
Spd
kts
Gust
kts
19/10:30pm 7.8 4.1 2.1 67 2.4 SSW 11 17 6 9 1033.9 1033.8 0.0
19/10:00pm 7.8 4.6 3.1 72 2.0 SSW 9 15 5 8 1033.9 1033.8 0.0
19/09:30pm 8.0 4.1 3.3 72 2.0 S 13 19 7 10 1033.6 1033.5 0.0
19/09:00pm 8.5 4.6 3.4 70 2.2 S 13 24 7 13 1033.2 1033.1 0.0
19/08:30pm 8.9 3.8 3.3 68 2.4 S 19 26 10 14 1032.9 1032.8 0.0
19/08:00pm 8.9 4.2 3.1 67 2.5 S 17 32 9 17 1032.5 1032.4 0.0
19/07:30pm 9.1 5.1 2.9 65 2.7 SSW 13 22 7 12 1032.3 1032.1 0.0
19/07:00pm 9.4 5.4 2.9 64 2.8 S 13 20 7 11 1032.0 1031.8 0.0
19/06:30pm 9.6 4.9 3.1 64 2.8 S 17 24 9 13 1031.4 1031.3 0.0
19/06:00pm 10.8 5.7 4.0 63 3.0 SSE 20 32 11 17 1031.0 1030.9 0.0
19/05:30pm 11.8 6.5 2.8 54 4.0 S 20 32 11 17 1030.3 1030.2 0.0
19/05:00pm 12.5 7.0 2.1 49 4.5 S 20 33 11 18 1029.7 1029.6 0.0
19/04:30pm 12.2 6.8 2.6 52 4.2 S 20 30 11 16 1029.5 1029.4 0.0
19/04:00pm 12.0 3.7 1.9 50 4.3 SSE 35 54 19 29 1029.3 1029.2 0.0
19/03:55pm 13.2 6.3 2.4 48 4.8 S 28 54 15 29 1029.1 1029.0 0.0
19/03:30pm 12.4 6.9 4.1 57 3.8 SSE 22 32 12 17 1028.8 1028.7 0.0
19/03:12pm 13.4 6.6 2.9 49 4.7 S 28 46 15 25 1028.5 1028.4 0.0
19/03:00pm 14.2 8.3 1.8 43 5.4 SSW 22 43 12 23 1028.3 1028.2 0.0
19/02:30pm 13.3 7.9 4.5 55 4.1 SSW 22 33 12 18 1028.3 1028.2 0.0
19/02:00pm 13.5 6.4 3.3 50 4.6 SSW 30 46 16 25 1028.0 1027.8 0.0
19/01:47pm 13.0 6.1 2.8 50 4.5 S 28 46 15 25 1027.8 1027.6 0.0
19/01:30pm 14.0 8.0 1.3 42 5.5 S 22 32 12 17 1027.6 1027.4 0.0
19/01:00pm 13.9 8.6 2.8 47 5.0 S 20 35 11 19 1027.7 1027.5 0.0
19/12:30pm 12.6 6.6 3.3 53 4.2 S 24 46 13 25 1028.0 1027.8 0.0
19/12:16pm 12.4 5.3 3.4 54 4.0 S 30 50 16 27 1027.7 1027.5 0.0
19/12:00pm 13.2 7.0 2.1 47 4.8 S 24 37 13 20 1027.6 1027.4 0.0
19/11:30am 13.5 6.9 1.8 45 5.1 S 26 44 14 24 1027.4 1027.2 0.0
19/11:09am 13.2 6.1 1.5 45 5.1 S 28 46 15 25 1027.4 1027.2 0.0
19/11:00am 13.0 6.8 2.3 48 4.7 SSW 24 39 13 21 1027.4 1027.2 0.0
19/10:37am 12.8 5.9 2.6 50 4.5 SSW 28 50 15 27 1027.1 1026.9 0.0
19/10:30am 13.1 7.1 3.5 52 4.4 SSW 24 35 13 19 1027.0 1026.8 0.0
19/10:12am 12.7 6.1 4.2 56 3.9 S 28 59 15 32 1026.8 1026.7 0.0
19/10:00am 11.9 5.3 4.2 59 3.5 S 28 41 15 22 1026.7 1026.6 0.0
19/09:30am 11.3 4.8 4.5 63 3.1 S 28 43 15 23 1026.4 1026.3 0.0
19/09:00am 10.6 5.2 4.3 65 2.8 SSW 22 37 12 20 1025.9 1025.8 0.4
19/08:30am 9.6 4.6 4.8 72 2.2 SW 20 32 11 17 1025.2 1025.1 0.4
19/08:00am 8.5 4.6 5.4 81 1.4 SSW 15 20 8 11 1024.8 1024.7 0.4
19/07:30am 7.3 5.5 5.3 87 0.9 S 4 9 2 5 1024.2 1024.1 0.4
19/07:00am 6.8 4.5 4.8 87 0.9 S 6 11 3 6 1023.5 1023.3 0.4
19/06:30am 7.2 4.3 4.9 85 1.0 SSW 9 17 5 9 1022.8 1022.6 0.4
19/06:00am 7.5 4.2 4.8 83 1.2 SSW 11 15 6 8 1022.5 1022.3 0.4
19/05:30am 7.9 5.1 5.2 83 1.2 SSW 9 15 5 8 1022.1 1021.9 0.4
19/05:00am 8.0 5.2 5.3 83 1.2 S 9 15 5 8 1021.7 1021.6 0.4
19/04:30am 8.2 4.7 5.5 83 1.2 SW 13 19 7 10 1020.9 1020.8 0.4
19/04:00am 8.4 4.3 6.0 85 1.1 SW 17 24 9 13 1020.7 1020.6 0.4
19/03:30am 8.7 4.6 6.3 85 1.1 WSW 17 22 9 12 1020.4 1020.3 0.4
19/03:00am 8.9 4.5 6.5 85 1.1 WSW 19 24 10 13 1020.1 1020.0 0.4
19/02:30am 9.2 4.8 6.6 84 1.2 SW 19 28 10 15 1020.0 1019.8 0.4
19/02:00am 9.6 5.3 7.0 84 1.2 SW 19 28 10 15 1019.7 1019.5 0.4
19/01:30am 9.7 5.8 7.0 83 1.3 SW 17 22 9 12 1019.6 1019.4 0.4
19/01:00am 10.3 6.1 7.5 83 1.4 SW 19 26 10 14 1019.2 1019.0 0.4
19/12:30am 10.9 7.2 8.0 82 1.4 SW 17 28 9 15 1018.9 1018.7 0.4
19/12:00am 11.1 8.2 8.0 81 1.5 SSW 13 26 7 14 1018.4 1018.2 0.2
 
Date/Time
EST
Temp
°C
App
Temp
°C
Dew
Point
Rel
Hum
%
Delta-T
°C
Wind Press
QNH
hPa
Press
MSL
hPa
Rain
since 9 am
mm
Dir
 
Spd
km/h
Gust
km/h
Spd
kts
Gust
kts
18/11:30pm 11.1 7.4 7.8 80 1.6 SW 17 26 9 14 1018.3 1018.1 0.2
18/11:00pm 11.2 7.5 8.1 81 1.5 SSW 17 26 9 14 1017.8 1017.6 0.2
18/10:30pm 11.4 7.9 8.8 84 1.3 SSW 17 26 9 14 1017.7 1017.5 0.2
18/10:00pm 11.6 8.9 8.8 83 1.4 SSW 13 17 7 9 1017.1 1016.9 0.2
18/09:30pm 11.6 7.2 8.8 83 1.4 SSW 22 35 12 19 1017.0 1016.8 0.2
18/09:00pm 11.1 6.4 9.4 89 0.9 SW 24 39 13 21 1016.6 1016.5 0.2
18/08:53pm 11.3 5.9 9.4 88 1.0 SW 28 48 15 26 1016.4 1016.3 0.2
18/08:46pm 11.4 6.0 9.5 88 1.0 SW 28 48 15 26 1016.2 1016.1 0.2
18/08:42pm 12.0 7.7 10.6 91 0.7 SW 24 39 13 21 1016.1 1016.0 0.2
18/08:30pm 12.6 8.2 10.5 87 1.1 SW 24 39 13 21 1015.8 1015.6 0.2
18/08:00pm 13.7 9.5 11.2 85 1.3 SW 24 37 13 20 1015.0 1014.8 0.2
18/07:43pm 16.2 13.0 11.2 72 2.7 W 19 41 10 22 1014.5 1014.3 0.0
18/07:30pm 16.4 15.4 10.3 67 3.3 NNW 6 17 3 9 1014.1 1013.9 0.0
18/07:00pm 16.2 16.0 10.5 69 3.1 N 2 6 1 3 1013.7 1013.5 0.0
18/06:30pm 16.6 15.4 9.5 63 3.7 NW 6 9 3 5 1013.3 1013.1 0.0
18/06:00pm 17.2 16.0 9.4 60 4.1 NW 6 9 3 5 1013.1 1012.9 0.0
18/05:30pm 18.2 15.5 9.0 55 4.8 W 13 20 7 11 1012.7 1012.5 0.0
18/05:00pm 18.3 14.4 8.6 53 5.1 W 19 33 10 18 1012.5 1012.3 0.0
18/04:30pm 19.2 15.9 9.4 53 5.2 WNW 17 28 9 15 1012.3 1012.1 0.0
18/04:00pm 18.7 14.7 8.4 51 5.4 WNW 19 28 10 15 1012.5 1012.3 0.0
18/03:30pm 19.3 15.5 7.7 47 6.0 WNW 17 26 9 14 1012.2 1012.0 0.0
18/03:00pm 18.7 15.9 8.7 52 5.3 WNW 13 20 7 11 1012.3 1012.1 0.0
18/02:30pm 17.9 13.8 8.5 54 4.9 W 20 30 11 16 1012.5 1012.3 0.0
18/02:00pm 17.8 15.4 10.2 61 4.1 WNW 13 20 7 11 1012.9 1012.7 0.0
18/01:30pm 17.3 14.0 9.7 61 4.0 WNW 17 26 9 14 1013.2 1013.0 0.0
18/01:00pm 17.0 14.7 10.6 66 3.4 NW 13 19 7 10 1013.4 1013.2 0.0
18/12:30pm 15.8 13.4 10.1 69 3.0 W 13 20 7 11 1014.2 1014.0 0.0
18/12:00pm 15.4 13.1 10.4 72 2.7 WNW 13 20 7 11 1014.2 1014.0 0.0
18/11:59am 15.6 13.4 10.8 73 2.6 WNW 13 20 7 11 1014.2 1014.0 0.0
18/11:30am 14.8 12.7 11.0 78 2.0 WNW 13 20 7 11 1014.6 1014.4 0.0
18/11:00am 13.9 11.1 11.4 85 1.3 WNW 17 24 9 13 1014.9 1014.7 0.0
18/10:30am 14.2 11.6 11.9 86 1.3 WNW 17 24 9 13 1015.0 1014.8 0.0
18/10:00am 14.1 13.5 12.3 89 1.0 W 7 13 4 7 1014.8 1014.6 0.0
18/09:30am 13.8 12.8 12.4 91 0.8 WNW 9 19 5 10 1014.9 1014.7 0.0
18/09:00am 13.6 11.5 12.5 93 0.6 W 15 22 8 12 1014.8 1014.6 9.6
18/08:30am 13.5 11.9 12.7 95 0.4 W 13 20 7 11 1014.7 1014.5 9.6
18/08:00am 13.4 12.6 12.8 96 0.3 W 9 13 5 7 1014.4 1014.2 9.6
18/07:30am 13.5 12.4 13.0 97 0.3 W 11 15 6 8 1014.0 1013.8 9.6
18/07:00am 13.7 13.0 13.2 97 0.3 WNW 9 13 5 7 1013.5 1013.3 9.2
18/06:30am 13.7 13.1 13.5 99 0.1 W 9 13 5 7 1013.2 1013.0 8.8
18/06:00am 13.7 13.5 13.5 99 0.1 WNW 7 11 4 6 1013.1 1012.9 8.8
18/05:30am 13.7 12.7 13.5 99 0.1 WNW 11 13 6 7 1012.8 1012.6 8.8
18/05:00am 13.7 13.1 13.5 99 0.1 W 9 13 5 7 1012.7 1012.5 8.8
18/04:58am 13.7 13.5 13.5 99 0.1 W 7 11 4 6 1012.6 1012.4 8.8
18/04:30am 13.8 12.9 13.6 99 0.1 WNW 11 17 6 9 1012.9 1012.7 8.8
18/04:00am 13.8 13.2 13.6 99 0.1 WNW 9 13 5 7 1012.8 1012.6 8.8
18/03:30am 13.6 14.7 13.4 99 0.1 CALM 0 0 0 0 1013.1 1012.9 8.6
18/03:00am 13.5 14.2 13.3 99 0.1 WNW 2 7 1 4 1013.1 1012.9 8.6
18/02:30am 13.3 14.3 13.1 99 0.1 CALM 0 6 0 3 1013.5 1013.3 8.6
18/02:00am 13.2 14.1 13.0 99 0.1 CALM 0 0 0 0 1013.4 1013.2 8.6
18/01:34am 13.1 14.0 12.9 99 0.1 CALM 0 0 0 0 1014.1 1013.9 8.6
18/01:30am 13.1 14.0 12.9 99 0.1 CALM 0 0 0 0 1014.1 1013.9 8.6
18/01:00am 13.0 13.9 12.8 99 0.1 CALM 0 0 0 0 1014.0 1013.8 8.6
18/12:30am 13.0 13.5 12.8 99 0.1 SE 2 7 1 4 1014.0 1013.8 8.6
18/12:00am 12.8 13.6 12.6 99 0.1 CALM 0 0 0 0 1014.4 1014.2 8.6
 
Date/Time
EST
Temp
°C
App
Temp
°C
Dew
Point
Rel
Hum
%
Delta-T
°C
Wind Press
QNH
hPa
Press
MSL
hPa
Rain
since 9 am
mm
Dir
 
Spd
km/h
Gust
km/h
Spd
kts
Gust
kts
17/11:58pm 12.7 13.5 12.5 99 0.1 CALM 0 0 0 0 1014.4 1014.2 8.6
17/11:40pm 12.7 12.3 12.5 99 0.1 S 6 9 3 5 1014.5 1014.3 8.6
17/11:33pm 12.6 12.6 12.4 99 0.1 SSW 4 7 2 4 1014.7 1014.5 8.6
17/11:30pm 12.7 13.1 12.5 99 0.1 S 2 7 1 4 1014.8 1014.6 8.4
17/11:00pm 12.6 13.4 12.4 99 0.1 CALM 0 0 0 0 1015.4 1015.2 7.4
17/10:44pm 12.5 13.2 12.3 99 0.1 CALM 0 0 0 0 1015.7 1015.5 7.2
17/10:30pm 12.5 12.8 12.3 99 0.1 SE 2 7 1 4 1015.8 1015.6 7.2
17/10:08pm 12.5 11.5 12.3 99 0.1 SSE 9 11 5 6 1015.5 1015.3 7.2
17/10:00pm 12.5 11.1 12.3 99 0.1 S 11 15 6 8 1015.6 1015.4 7.2
17/09:30pm 12.5 12.8 12.3 99 0.1 E 2 7 1 4 1015.9 1015.7 6.8
17/09:22pm 12.4 13.1 12.2 99 0.1 CALM 0 0 0 0 1016.1 1016.0 6.6
17/09:00pm 12.2 12.8 12.0 99 0.1 CALM 0 0 0 0 1016.4 1016.3 5.8
17/08:30pm 12.1 11.6 11.9 99 0.1 SE 6 9 3 5 1016.3 1016.2 5.6
17/08:29pm 12.1 11.6 11.9 99 0.1 SE 6 9 3 5 1016.3 1016.2 5.4
17/08:00pm 12.0 11.4 11.7 98 0.2 E 6 9 3 5 1016.7 1016.6 5.0
17/07:35pm 12.0 12.5 11.7 98 0.2 CALM 0 6 0 3 1017.0 1016.8 4.8
17/07:34pm 11.9 12.4 11.6 98 0.2 CALM 0 6 0 3 1017.0 1016.8 4.8
17/07:30pm 11.9 12.4 11.6 98 0.2 CALM 0 6 0 3 1017.0 1016.8 4.8
17/07:00pm 11.8 11.8 11.3 97 0.3 SE 2 7 1 4 1016.7 1016.6 4.6
17/06:30pm 11.7 11.7 11.2 97 0.3 ESE 2 6 1 3 1017.1 1016.9 3.8
17/06:00pm 11.8 11.0 11.2 96 0.3 SE 6 9 3 5 1017.0 1016.8 3.4
17/05:52pm 11.8 11.0 11.0 95 0.4 SE 6 9 3 5 1016.9 1016.7 3.4
17/05:47pm 11.8 11.0 11.0 95 0.4 SE 6 9 3 5 1017.0 1016.8 3.4
17/05:30pm 12.0 10.9 10.6 91 0.7 E 7 11 4 6 1016.9 1016.7 3.0
17/05:29pm 12.0 10.9 10.6 91 0.7 E 7 11 4 6 1016.9 1016.7 3.0
17/05:14pm 12.1 11.2 10.5 90 0.8 ESE 6 9 3 5 1017.1 1016.9 3.0
17/05:09pm 12.2 11.1 10.8 91 0.7 ESE 7 13 4 7 1016.9 1016.7 3.0
17/05:00pm 12.1 10.6 10.7 91 0.7 E 9 13 5 7 1016.4 1016.3 3.0
17/04:53pm 12.4 11.4 11.0 91 0.7 E 7 13 4 7 1016.5 1016.4 2.8
17/04:30pm 12.4 11.5 10.5 88 1.0 SSE 6 9 3 5 1017.5 1017.3 2.8
17/04:00pm 12.6 11.2 10.8 89 0.9 SE 9 15 5 8 1017.3 1017.1 2.6
17/03:30pm 12.7 11.3 10.8 88 1.0 SE 9 15 5 8 1017.7 1017.5 2.6
17/03:00pm 13.0 11.7 11.4 90 0.9 ESE 9 13 5 7 1017.9 1017.7 2.6
17/02:30pm 12.7 11.6 10.8 88 1.0 SE 7 11 4 6 1018.5 1018.3 2.6
17/02:00pm 13.0 13.1 10.2 83 1.5 CALM 0 0 0 0 1019.5 1019.3 2.2
17/01:30pm 13.0 13.1 10.2 83 1.5 CALM 0 0 0 0 1019.6 1019.4 2.0
17/01:00pm 13.3 11.6 9.7 79 1.9 NNE 9 11 5 6 1020.3 1020.2 1.0
17/12:30pm 14.6 11.9 9.0 69 2.9 NE 13 17 7 9 1020.7 1020.6 0.0
17/12:00pm 15.3 13.0 7.6 60 3.9 NE 9 13 5 7 1021.0 1020.9 0.0
17/11:30am 15.3 13.5 7.3 59 4.0 ENE 6 9 3 5 1021.2 1021.1 0.0
17/11:00am 15.1 13.1 7.2 59 3.9 ESE 7 11 4 6 1021.6 1021.5 0.0
17/10:30am 14.7 11.5 6.8 59 3.9 SSE 13 15 7 8 1021.9 1021.7 0.0
17/10:00am 14.2 11.9 7.5 64 3.3 SSE 9 15 5 8 1022.3 1022.1 0.0
17/09:30am 13.5 11.2 7.3 66 3.1 SSE 9 15 5 8 1022.9 1022.7 0.0
17/09:00am 12.7 10.2 8.2 74 2.2 SSE 11 13 6 7 1023.3 1023.1 0.0
17/08:30am 12.4 10.9 8.3 76 2.0 SSE 6 11 3 6 1023.3 1023.1 0.0
17/08:00am 11.6 10.1 8.6 82 1.5 S 6 7 3 4 1023.3 1023.1 0.0
17/07:30am 10.6 9.0 8.9 89 0.8 S 7 9 4 5 1023.2 1023.0 0.0
17/07:00am 10.5 10.1 8.3 86 1.1 CALM 0 0 0 0 1023.0 1022.8 0.0
17/06:30am 10.4 10.0 8.3 87 1.0 CALM 0 0 0 0 1022.8 1022.6 0.0
17/06:00am 11.2 10.8 8.1 81 1.5 CALM 0 0 0 0 1022.5 1022.3 0.0
17/05:30am 11.2 9.6 8.1 81 1.5 N 6 7 3 4 1022.3 1022.1 0.0
17/05:00am 11.4 10.9 7.9 79 1.7 CALM 0 0 0 0 1022.2 1022.0 0.0
17/04:30am 11.4 11.0 8.1 80 1.6 CALM 0 0 0 0 1022.2 1022.0 0.0
17/04:00am 11.6 11.1 7.9 78 1.8 CALM 0 0 0 0 1022.1 1021.9 0.0
17/03:30am 11.7 10.5 8.0 78 1.8 ESE 4 7 2 4 1021.9 1021.7 0.0
17/03:00am 11.8 9.6 7.9 77 1.9 SE 9 15 5 8 1021.9 1021.7 0.0
17/02:30am 12.0 9.4 7.9 76 2.0 SE 11 19 6 10 1022.2 1022.0 0.0
17/02:00am 12.1 9.6 8.0 76 2.0 SE 11 15 6 8 1022.7 1022.5 0.0
17/01:30am 12.2 8.5 7.9 75 2.1 SSE 17 24 9 13 1023.0 1022.8 0.0
17/01:00am 12.3 7.7 8.0 75 2.1 SSE 22 32 12 17 1023.3 1023.1 0.0
17/12:30am 12.5 7.9 8.2 75 2.1 SSE 22 32 12 17 1023.9 1023.7 0.0
17/12:00am 12.7 9.1 8.2 74 2.2 SSE 17 22 9 12 1024.4 1024.3 0.0
 
Date/Time
EST
Temp
°C
App
Temp
°C
Dew
Point
Rel
Hum
%
Delta-T
°C
Wind Press
QNH
hPa
Press
MSL
hPa
Rain
since 9 am
mm
Dir
 
Spd
km/h
Gust
km/h
Spd
kts
Gust
kts
16/11:30pm 12.9 10.0 8.2 73 2.4 SSE 13 17 7 9 1024.8 1024.7 0.0
16/11:00pm 13.0 10.5 8.3 73 2.3 SSE 11 17 6 9 1025.2 1025.1 0.0

Other Formats:

Comma delimited format used in spreadsheet applications
http://www.bom.gov.au/fwo/IDV60801/IDV60801.94855.axf

JavaScript Object Notation format (JSON) in row-major order
http://www.bom.gov.au/fwo/IDV60801/IDV60801.94855.json